createdAt,value
2023-05-19T00:00:33.633Z,509.00
2023-05-19T00:01:33.451Z,510.00
2023-05-19T00:02:33.532Z,514.00
2023-05-19T00:03:33.628Z,517.00
2023-05-19T00:04:33.919Z,517.00
2023-05-19T00:05:33.525Z,518.00
2023-05-19T00:06:33.446Z,520.00
2023-05-19T00:07:33.398Z,521.00
2023-05-19T00:08:33.734Z,523.00
2023-05-19T00:09:33.352Z,522.00
2023-05-19T00:10:33.572Z,520.00
2023-05-19T00:11:33.373Z,519.00
2023-05-19T00:12:33.349Z,517.00
2023-05-19T00:13:33.354Z,520.00
2023-05-19T00:14:33.336Z,519.00
2023-05-19T00:15:33.335Z,518.00
2023-05-19T00:16:33.459Z,517.00
2023-05-19T00:17:33.421Z,516.00
2023-05-19T00:18:33.286Z,516.00
2023-05-19T00:19:33.330Z,516.00
2023-05-19T00:20:33.496Z,516.00
2023-05-19T00:21:33.290Z,518.00
2023-05-19T00:22:33.253Z,518.00
2023-05-19T00:23:33.249Z,522.00
2023-05-19T00:24:33.325Z,523.00
2023-05-19T00:25:33.256Z,522.00
2023-05-19T00:26:33.277Z,522.00
2023-05-19T00:27:33.268Z,523.00
2023-05-19T00:28:33.230Z,522.00
2023-05-19T00:29:33.264Z,524.00
2023-05-19T00:30:33.409Z,524.00
2023-05-19T00:31:33.311Z,520.00
2023-05-19T00:32:33.228Z,521.00
2023-05-19T00:33:33.208Z,521.00
2023-05-19T00:34:33.216Z,521.00
2023-05-19T00:35:33.172Z,520.00
2023-05-19T00:36:33.185Z,521.00
2023-05-19T00:37:33.154Z,520.00
2023-05-19T00:38:33.200Z,520.00
2023-05-19T00:39:33.167Z,521.00
2023-05-19T00:40:33.323Z,518.00
2023-05-19T00:41:33.162Z,518.00
2023-05-19T00:42:33.156Z,516.00
2023-05-19T00:43:33.245Z,514.00
2023-05-19T00:44:33.150Z,512.00
2023-05-19T00:45:33.149Z,510.00
2023-05-19T00:46:33.187Z,511.00
2023-05-19T00:47:33.212Z,511.00
2023-05-19T00:48:33.102Z,514.00
2023-05-19T00:49:33.147Z,515.00
2023-05-19T00:50:33.253Z,516.00
2023-05-19T00:51:33.107Z,517.00
2023-05-19T00:52:33.108Z,519.00
2023-05-19T00:53:33.125Z,518.00
2023-05-19T00:54:33.118Z,518.00
2023-05-19T00:55:33.067Z,518.00
2023-05-19T00:56:33.052Z,519.00
2023-05-19T00:57:33.057Z,521.00
2023-05-19T00:58:33.076Z,519.00
2023-05-19T00:59:33.053Z,519.00
2023-05-19T01:00:33.308Z,517.00
2023-05-19T01:01:33.087Z,517.00
2023-05-19T01:02:33.153Z,518.00
2023-05-19T01:03:33.148Z,519.00
2023-05-19T01:04:32.994Z,520.00
2023-05-19T01:05:33.019Z,521.00
2023-05-19T01:06:32.971Z,521.00
2023-05-19T01:07:32.982Z,519.00
2023-05-19T01:08:33.008Z,519.00
2023-05-19T01:09:33.018Z,519.00
2023-05-19T01:10:33.159Z,519.00
2023-05-19T01:11:32.977Z,519.00
2023-05-19T01:12:32.957Z,519.00
2023-05-19T01:13:32.960Z,522.00
2023-05-19T01:14:33.001Z,520.00
2023-05-19T01:15:32.934Z,520.00
2023-05-19T01:16:32.986Z,523.00
2023-05-19T01:17:32.942Z,524.00
2023-05-19T01:18:32.956Z,524.00
2023-05-19T01:19:32.891Z,525.00
2023-05-19T01:20:33.168Z,525.00
2023-05-19T01:21:32.915Z,525.00
2023-05-19T01:22:32.900Z,526.00
2023-05-19T01:23:32.927Z,526.00
2023-05-19T01:24:32.860Z,526.00
2023-05-19T01:25:32.905Z,526.00
2023-05-19T01:26:32.891Z,524.00
2023-05-19T01:27:32.881Z,521.00
2023-05-19T01:28:32.917Z,521.00
2023-05-19T01:29:32.840Z,520.00
2023-05-19T01:30:32.994Z,521.00
2023-05-19T01:31:32.833Z,521.00
2023-05-19T01:32:32.890Z,519.00
2023-05-19T01:33:32.858Z,519.00
2023-05-19T01:34:32.817Z,519.00
2023-05-19T01:35:32.846Z,519.00
2023-05-19T01:36:32.885Z,520.00
2023-05-19T01:37:32.801Z,519.00
2023-05-19T01:38:32.788Z,518.00
2023-05-19T01:39:32.742Z,518.00
2023-05-19T01:40:33.121Z,516.00
2023-05-19T01:41:32.778Z,513.00
2023-05-19T01:42:32.762Z,512.00
2023-05-19T01:43:32.747Z,513.00
2023-05-19T01:44:32.736Z,513.00
2023-05-19T01:45:32.773Z,516.00
2023-05-19T01:46:32.772Z,518.00
2023-05-19T01:47:32.738Z,519.00
2023-05-19T01:48:32.786Z,520.00
2023-05-19T01:49:32.717Z,520.00
2023-05-19T01:50:33.047Z,522.00
2023-05-19T01:51:32.684Z,522.00
2023-05-19T01:52:32.703Z,523.00
2023-05-19T01:53:32.674Z,519.00
2023-05-19T01:54:32.702Z,519.00
2023-05-19T01:55:32.703Z,517.00
2023-05-19T01:56:32.671Z,517.00
2023-05-19T01:57:32.677Z,516.00
2023-05-19T01:58:32.680Z,516.00
2023-05-19T01:59:32.651Z,516.00
2023-05-19T02:00:32.881Z,516.00
2023-05-19T02:01:32.657Z,517.00
2023-05-19T02:02:32.677Z,516.00
2023-05-19T02:03:32.627Z,516.00
2023-05-19T02:04:32.633Z,516.00
2023-05-19T02:05:32.608Z,514.00
2023-05-19T02:06:32.627Z,516.00
2023-05-19T02:07:32.633Z,514.00
2023-05-19T02:08:32.607Z,514.00
2023-05-19T02:09:32.619Z,512.00
2023-05-19T02:10:32.772Z,514.00
2023-05-19T02:11:32.604Z,515.00
2023-05-19T02:12:32.588Z,516.00
2023-05-19T02:13:32.548Z,515.00
2023-05-19T02:14:32.569Z,513.00
2023-05-19T02:15:32.584Z,513.00
2023-05-19T02:16:32.544Z,513.00
2023-05-19T02:17:32.509Z,514.00
2023-05-19T02:18:32.515Z,513.00
2023-05-19T02:19:32.513Z,512.00
2023-05-19T02:20:32.622Z,510.00
2023-05-19T02:21:32.486Z,513.00
2023-05-19T02:22:32.480Z,514.00
2023-05-19T02:23:32.483Z,516.00
2023-05-19T02:24:32.439Z,518.00
2023-05-19T02:25:32.454Z,520.00
2023-05-19T02:26:32.520Z,520.00
2023-05-19T02:27:32.455Z,518.00
2023-05-19T02:28:32.483Z,516.00
2023-05-19T02:29:32.427Z,515.00
2023-05-19T02:30:32.640Z,518.00
2023-05-19T02:31:32.559Z,517.00
2023-05-19T02:32:32.462Z,516.00
2023-05-19T02:33:32.427Z,514.00
2023-05-19T02:34:32.408Z,513.00
2023-05-19T02:35:32.393Z,513.00
2023-05-19T02:36:32.412Z,512.00
2023-05-19T02:37:32.416Z,512.00
2023-05-19T02:38:32.402Z,513.00
2023-05-19T02:39:32.438Z,512.00
2023-05-19T02:40:32.500Z,511.00
2023-05-19T02:41:32.428Z,512.00
2023-05-19T02:42:32.361Z,513.00
2023-05-19T02:43:32.369Z,513.00
2023-05-19T02:44:32.355Z,513.00
2023-05-19T02:45:32.325Z,512.00
2023-05-19T02:46:32.514Z,512.00
2023-05-19T02:47:33.206Z,513.00
2023-05-19T02:48:32.349Z,514.00
2023-05-19T02:49:32.353Z,511.00
2023-05-19T02:50:32.545Z,510.00
2023-05-19T02:51:32.407Z,508.00
2023-05-19T02:52:32.370Z,508.00
2023-05-19T02:53:32.402Z,509.00
2023-05-19T02:54:32.446Z,510.00
2023-05-19T02:55:32.461Z,510.00
2023-05-19T02:56:32.505Z,510.00
2023-05-19T02:57:32.454Z,510.00
2023-05-19T02:58:32.466Z,513.00
2023-05-19T02:59:32.474Z,512.00
2023-05-19T03:00:32.741Z,512.00
2023-05-19T03:01:32.576Z,509.00
2023-05-19T03:02:32.650Z,509.00
2023-05-19T03:03:32.593Z,511.00
2023-05-19T03:04:32.540Z,510.00
2023-05-19T03:05:32.566Z,509.00
2023-05-19T03:06:32.525Z,506.00
2023-05-19T03:07:32.574Z,504.00
2023-05-19T03:08:32.584Z,506.00
2023-05-19T03:09:32.617Z,507.00
2023-05-19T03:10:32.785Z,505.00
2023-05-19T03:11:32.602Z,503.00
2023-05-19T03:12:32.634Z,505.00
2023-05-19T03:13:32.641Z,507.00
2023-05-19T03:14:32.660Z,509.00
2023-05-19T03:15:32.659Z,509.00
2023-05-19T03:16:32.680Z,508.00
2023-05-19T03:17:32.728Z,508.00
2023-05-19T03:18:32.702Z,507.00
2023-05-19T03:19:32.652Z,506.00
2023-05-19T03:20:32.781Z,505.00
2023-05-19T03:21:32.684Z,509.00
2023-05-19T03:22:32.708Z,509.00
2023-05-19T03:23:32.751Z,509.00
2023-05-19T03:24:32.722Z,508.00
2023-05-19T03:25:32.736Z,506.00
2023-05-19T03:26:32.739Z,509.00
2023-05-19T03:27:32.757Z,510.00
2023-05-19T03:28:32.768Z,510.00
2023-05-19T03:29:32.780Z,511.00
2023-05-19T03:30:33.018Z,513.00
2023-05-19T03:31:32.848Z,514.00
2023-05-19T03:32:32.999Z,515.00
2023-05-19T03:33:32.906Z,515.00
2023-05-19T03:34:32.847Z,515.00
2023-05-19T03:35:32.838Z,512.00
2023-05-19T03:36:32.903Z,511.00
2023-05-19T03:37:32.861Z,509.00
2023-05-19T03:38:32.872Z,508.00
2023-05-19T03:39:32.860Z,507.00
2023-05-19T03:40:33.272Z,509.00
2023-05-19T03:41:32.951Z,511.00
2023-05-19T03:42:32.949Z,511.00
2023-05-19T03:43:32.925Z,508.00
2023-05-19T03:44:32.993Z,506.00
2023-05-19T03:45:33.028Z,503.00
2023-05-19T03:46:32.991Z,502.00
2023-05-19T03:47:33.094Z,505.00
2023-05-19T03:48:33.009Z,504.00
2023-05-19T03:49:33.002Z,507.00
2023-05-19T03:50:33.185Z,507.00
2023-05-19T03:51:33.070Z,504.00
2023-05-19T03:52:33.073Z,504.00
2023-05-19T03:53:33.081Z,505.00
2023-05-19T03:54:33.088Z,505.00
2023-05-19T03:55:33.123Z,503.00
2023-05-19T03:56:33.154Z,503.00
2023-05-19T03:57:33.132Z,498.00
2023-05-19T03:58:33.152Z,497.00
2023-05-19T03:59:33.173Z,498.00
2023-05-19T04:00:33.557Z,499.00
2023-05-19T04:01:33.182Z,498.00
2023-05-19T04:02:33.234Z,497.00
2023-05-19T04:03:33.283Z,499.00
2023-05-19T04:04:33.500Z,500.00
2023-05-19T04:05:33.272Z,503.00
2023-05-19T04:06:33.273Z,507.00
2023-05-19T04:07:33.283Z,511.00
2023-05-19T04:08:33.326Z,513.00
2023-05-19T04:09:33.296Z,518.00
2023-05-19T04:10:33.433Z,522.00
2023-05-19T04:11:33.319Z,527.00
2023-05-19T04:12:33.346Z,530.00
2023-05-19T04:13:33.333Z,531.00
2023-05-19T04:14:33.349Z,535.00
2023-05-19T04:15:33.456Z,536.00
2023-05-19T04:16:33.407Z,538.00
2023-05-19T04:17:33.433Z,540.00
2023-05-19T04:18:33.430Z,540.00
2023-05-19T04:19:33.544Z,542.00
2023-05-19T04:20:33.646Z,546.00
2023-05-19T04:21:33.469Z,547.00
2023-05-19T04:22:33.481Z,547.00
2023-05-19T04:23:33.537Z,547.00
2023-05-19T04:24:33.541Z,548.00
2023-05-19T04:25:33.570Z,550.00
2023-05-19T04:26:33.555Z,552.00
2023-05-19T04:27:33.557Z,551.00
2023-05-19T04:28:33.625Z,554.00
2023-05-19T04:29:33.609Z,555.00
2023-05-19T04:30:33.843Z,560.00
2023-05-19T04:31:33.670Z,561.00
2023-05-19T04:32:33.677Z,560.00
2023-05-19T04:33:33.658Z,558.00
2023-05-19T04:34:33.727Z,560.00
2023-05-19T04:35:33.716Z,560.00
2023-05-19T04:36:33.731Z,558.00
2023-05-19T04:37:33.742Z,558.00
2023-05-19T04:38:33.736Z,555.00
2023-05-19T04:39:33.766Z,553.00
2023-05-19T04:40:34.023Z,554.00
2023-05-19T04:41:33.787Z,556.00
2023-05-19T04:42:33.821Z,555.00
2023-05-19T04:43:33.825Z,553.00
2023-05-19T04:44:33.837Z,551.00
2023-05-19T04:45:33.820Z,551.00
2023-05-19T04:46:33.939Z,554.00
2023-05-19T04:47:33.854Z,551.00
2023-05-19T04:48:33.869Z,553.00
2023-05-19T04:49:33.861Z,555.00
2023-05-19T04:50:34.305Z,553.00
2023-05-19T04:51:33.853Z,554.00
2023-05-19T04:52:33.915Z,555.00
2023-05-19T04:53:33.855Z,556.00
2023-05-19T04:54:33.865Z,556.00
2023-05-19T04:55:33.853Z,558.00
2023-05-19T04:56:33.867Z,556.00
2023-05-19T04:57:33.845Z,553.00
2023-05-19T04:58:33.868Z,553.00
2023-05-19T04:59:33.836Z,553.00
2023-05-19T05:00:33.978Z,556.00
2023-05-19T05:01:33.932Z,557.00
2023-05-19T05:02:33.893Z,560.00
2023-05-19T05:03:33.956Z,558.00
2023-05-19T05:04:33.862Z,557.00
2023-05-19T05:05:33.837Z,556.00
2023-05-19T05:06:33.839Z,553.00
2023-05-19T05:07:33.846Z,551.00
2023-05-19T05:08:33.829Z,549.00
2023-05-19T05:09:33.851Z,550.00
2023-05-19T05:10:34.084Z,551.00
2023-05-19T05:11:33.840Z,551.00
2023-05-19T05:12:33.811Z,550.00
2023-05-19T05:13:33.804Z,547.00
2023-05-19T05:14:33.830Z,544.00
2023-05-19T05:15:33.794Z,543.00
2023-05-19T05:16:33.859Z,543.00
2023-05-19T05:17:34.338Z,541.00
2023-05-19T05:18:33.812Z,542.00
2023-05-19T05:19:33.917Z,543.00
2023-05-19T05:20:33.942Z,543.00
2023-05-19T05:21:33.795Z,541.00
2023-05-19T05:22:33.785Z,540.00
2023-05-19T05:23:33.791Z,542.00
2023-05-19T05:24:33.797Z,542.00
2023-05-19T05:25:33.996Z,542.00
2023-05-19T05:26:33.811Z,545.00
2023-05-19T05:27:33.814Z,546.00
2023-05-19T05:28:33.822Z,548.00
2023-05-19T05:29:33.928Z,547.00
2023-05-19T05:30:33.800Z,546.00
2023-05-19T05:31:33.824Z,544.00
2023-05-19T05:32:33.871Z,545.00
2023-05-19T05:33:33.843Z,546.00
2023-05-19T05:34:33.808Z,548.00
2023-05-19T05:35:34.029Z,549.00
2023-05-19T05:36:33.793Z,549.00
2023-05-19T05:37:33.908Z,549.00
2023-05-19T05:38:33.787Z,549.00
2023-05-19T05:39:33.955Z,548.00
2023-05-19T05:40:33.803Z,547.00
2023-05-19T05:41:33.831Z,544.00
2023-05-19T05:42:33.821Z,540.00
2023-05-19T05:43:33.820Z,538.00
2023-05-19T05:44:33.833Z,536.00
2023-05-19T05:45:34.029Z,535.00
2023-05-19T05:46:33.874Z,535.00
2023-05-19T05:47:33.884Z,537.00
2023-05-19T05:48:33.879Z,537.00
2023-05-19T05:49:33.916Z,538.00
2023-05-19T05:50:33.986Z,541.00
2023-05-19T05:51:33.934Z,541.00
2023-05-19T05:52:33.946Z,541.00
2023-05-19T05:53:34.033Z,540.00
2023-05-19T05:54:34.006Z,538.00
2023-05-19T05:55:34.185Z,538.00
2023-05-19T05:56:34.009Z,541.00
2023-05-19T05:57:34.020Z,541.00
2023-05-19T05:58:35.206Z,539.00
2023-05-19T05:59:34.099Z,539.00
2023-05-19T06:00:34.381Z,538.00
2023-05-19T06:01:35.588Z,535.00
2023-05-19T06:02:34.190Z,535.00
2023-05-19T06:03:34.214Z,537.00
2023-05-19T06:04:34.187Z,536.00
2023-05-19T06:05:34.223Z,535.00
2023-05-19T06:06:34.249Z,534.00
2023-05-19T06:07:34.296Z,536.00
2023-05-19T06:08:34.311Z,535.00
2023-05-19T06:09:34.368Z,534.00
2023-05-19T06:10:34.671Z,537.00
2023-05-19T06:11:34.436Z,538.00
2023-05-19T06:12:34.435Z,540.00
2023-05-19T06:13:34.480Z,539.00
2023-05-19T06:14:34.584Z,539.00
2023-05-19T06:15:34.660Z,536.00
2023-05-19T06:16:34.727Z,535.00
2023-05-19T06:17:34.861Z,534.00
2023-05-19T06:18:34.768Z,536.00
2023-05-19T06:19:34.876Z,533.00
2023-05-19T06:20:35.129Z,537.00
2023-05-19T06:21:34.956Z,539.00
2023-05-19T06:22:35.017Z,538.00
2023-05-19T06:23:35.079Z,535.00
2023-05-19T06:24:35.715Z,532.00
2023-05-19T06:25:35.193Z,531.00
2023-05-19T06:26:35.212Z,530.00
2023-05-19T06:27:35.261Z,529.00
2023-05-19T06:28:35.291Z,529.00
2023-05-19T06:29:35.304Z,531.00
2023-05-19T06:30:35.463Z,533.00
2023-05-19T06:31:35.479Z,536.00
2023-05-19T06:32:35.541Z,535.00
2023-05-19T06:33:35.550Z,537.00
2023-05-19T06:34:35.574Z,536.00
2023-05-19T06:35:35.681Z,537.00
2023-05-19T06:36:35.727Z,538.00
2023-05-19T06:37:35.731Z,537.00
2023-05-19T06:38:35.939Z,537.00
2023-05-19T06:39:35.908Z,537.00
2023-05-19T06:40:35.896Z,536.00
2023-05-19T06:41:36.012Z,536.00
2023-05-19T06:42:36.039Z,535.00
2023-05-19T06:43:36.028Z,532.00
2023-05-19T06:44:36.081Z,529.00
2023-05-19T06:45:36.298Z,528.00
2023-05-19T06:46:36.260Z,530.00
2023-05-19T06:47:36.291Z,532.00
2023-05-19T06:48:36.268Z,532.00
2023-05-19T06:49:36.291Z,532.00
2023-05-19T06:50:36.336Z,533.00
2023-05-19T06:51:36.381Z,535.00
2023-05-19T06:52:36.388Z,535.00
2023-05-19T06:53:36.461Z,537.00
2023-05-19T06:54:36.474Z,534.00
2023-05-19T06:55:43.964Z,532.00
2023-05-19T06:56:37.461Z,532.00
2023-05-19T06:57:36.434Z,532.00
2023-05-19T06:58:36.433Z,536.00
2023-05-19T06:59:36.446Z,535.00
2023-05-19T07:00:36.560Z,535.00
2023-05-19T07:01:36.463Z,533.00
2023-05-19T07:02:36.521Z,534.00
2023-05-19T07:03:36.510Z,535.00
2023-05-19T07:04:36.404Z,537.00
2023-05-19T07:05:36.381Z,536.00
2023-05-19T07:06:36.382Z,538.00
2023-05-19T07:07:36.372Z,538.00
2023-05-19T07:08:36.343Z,536.00
2023-05-19T07:09:36.355Z,533.00
2023-05-19T07:10:36.546Z,532.00
2023-05-19T07:11:36.371Z,532.00
2023-05-19T07:12:36.318Z,533.00
2023-05-19T07:13:36.317Z,534.00
2023-05-19T07:14:36.334Z,535.00
2023-05-19T07:15:36.289Z,535.00
2023-05-19T07:16:36.392Z,534.00
2023-05-19T07:17:36.312Z,535.00
2023-05-19T07:18:36.382Z,536.00
2023-05-19T07:19:36.409Z,535.00
2023-05-19T07:20:36.452Z,535.00
2023-05-19T07:21:36.442Z,533.00
2023-05-19T07:22:36.502Z,533.00
2023-05-19T07:23:36.496Z,531.00
2023-05-19T07:24:36.515Z,533.00
2023-05-19T07:25:36.541Z,531.00
2023-05-19T07:26:36.590Z,531.00
2023-05-19T07:27:36.633Z,533.00
2023-05-19T07:28:37.377Z,535.00
2023-05-19T07:29:36.647Z,536.00
2023-05-19T07:30:36.702Z,536.00
2023-05-19T07:31:36.898Z,535.00
2023-05-19T07:32:36.767Z,534.00
2023-05-19T07:33:36.720Z,535.00
2023-05-19T07:34:36.813Z,533.00
2023-05-19T07:35:36.797Z,534.00
2023-05-19T07:36:36.798Z,536.00
2023-05-19T07:37:36.782Z,537.00
2023-05-19T07:38:36.880Z,537.00
2023-05-19T07:39:36.877Z,538.00
2023-05-19T07:40:36.886Z,536.00
2023-05-19T07:41:36.837Z,534.00
2023-05-19T07:42:37.148Z,536.00
2023-05-19T07:43:36.892Z,537.00
2023-05-19T07:44:36.898Z,538.00
2023-05-19T07:45:37.033Z,539.00
2023-05-19T07:46:37.019Z,539.00
2023-05-19T07:47:36.942Z,541.00
2023-05-19T07:48:36.941Z,543.00
2023-05-19T07:49:36.923Z,541.00
2023-05-19T07:50:37.002Z,539.00
2023-05-19T07:51:37.046Z,539.00
2023-05-19T07:52:36.924Z,534.00
2023-05-19T07:53:36.941Z,533.00
2023-05-19T07:54:36.938Z,532.00
2023-05-19T07:55:36.931Z,532.00
2023-05-19T07:56:36.986Z,533.00
2023-05-19T07:57:36.985Z,534.00
2023-05-19T07:58:37.009Z,534.00
2023-05-19T07:59:37.066Z,537.00
2023-05-19T08:00:37.122Z,535.00
2023-05-19T08:01:37.152Z,535.00
2023-05-19T08:02:37.318Z,536.00
2023-05-19T08:03:37.503Z,538.00
2023-05-19T08:04:37.402Z,541.00
2023-05-19T08:05:37.385Z,541.00
2023-05-19T08:06:37.456Z,543.00
2023-05-19T08:07:37.650Z,543.00
2023-05-19T08:08:37.580Z,542.00
2023-05-19T08:09:37.645Z,541.00
2023-05-19T08:10:37.733Z,541.00
2023-05-19T08:11:37.757Z,541.00
2023-05-19T08:12:37.826Z,541.00
2023-05-19T08:13:37.879Z,539.00
2023-05-19T08:14:37.924Z,544.00
2023-05-19T08:15:38.012Z,544.00
2023-05-19T08:16:38.003Z,544.00
2023-05-19T08:17:38.153Z,544.00
2023-05-19T08:18:38.172Z,544.00
2023-05-19T08:19:38.186Z,542.00
2023-05-19T08:20:38.213Z,542.00
2023-05-19T08:21:38.281Z,541.00
2023-05-19T08:22:38.320Z,541.00
2023-05-19T08:23:38.417Z,538.00
2023-05-19T08:24:38.481Z,538.00
2023-05-19T08:25:38.514Z,537.00
2023-05-19T08:26:38.550Z,535.00
2023-05-19T08:27:38.670Z,537.00
2023-05-19T08:28:38.697Z,537.00
2023-05-19T08:29:38.741Z,536.00
2023-05-19T08:30:38.850Z,537.00
2023-05-19T08:31:38.927Z,535.00
2023-05-19T08:32:38.925Z,537.00
2023-05-19T08:33:39.020Z,536.00
2023-05-19T08:34:38.942Z,537.00
2023-05-19T08:35:38.964Z,537.00
2023-05-19T08:36:39.011Z,535.00
2023-05-19T08:37:39.088Z,537.00
2023-05-19T08:38:39.084Z,538.00
2023-05-19T08:39:39.084Z,539.00
2023-05-19T08:40:39.138Z,538.00
2023-05-19T08:41:39.170Z,537.00
2023-05-19T08:42:39.189Z,536.00
2023-05-19T08:43:39.248Z,533.00
2023-05-19T08:44:39.268Z,537.00
2023-05-19T08:45:39.275Z,537.00
2023-05-19T08:46:39.318Z,537.00
2023-05-19T08:47:39.352Z,538.00
2023-05-19T08:48:39.356Z,540.00
2023-05-19T08:49:39.393Z,541.00
2023-05-19T08:50:39.419Z,542.00
2023-05-19T08:51:39.471Z,540.00
2023-05-19T08:52:39.521Z,539.00
2023-05-19T08:53:39.478Z,539.00
2023-05-19T08:54:39.517Z,539.00
2023-05-19T08:55:39.603Z,539.00
2023-05-19T08:56:39.598Z,536.00
2023-05-19T08:57:39.689Z,537.00
2023-05-19T08:58:39.666Z,538.00
2023-05-19T08:59:39.697Z,539.00
2023-05-19T09:00:39.736Z,539.00
2023-05-19T09:01:39.764Z,539.00
2023-05-19T09:02:50.398Z,539.00
2023-05-19T09:03:41.027Z,538.00
2023-05-19T09:04:39.835Z,538.00
2023-05-19T09:05:39.801Z,538.00
2023-05-19T09:06:39.787Z,538.00
2023-05-19T09:07:39.792Z,538.00
2023-05-19T09:08:39.796Z,535.00
2023-05-19T09:09:39.741Z,536.00
2023-05-19T09:10:39.733Z,534.00
2023-05-19T09:11:39.762Z,534.00
2023-05-19T09:12:39.722Z,533.00
2023-05-19T09:13:39.730Z,536.00
2023-05-19T09:14:39.734Z,536.00
2023-05-19T09:15:39.779Z,535.00
2023-05-19T09:16:39.691Z,534.00
2023-05-19T09:17:39.709Z,533.00
2023-05-19T09:18:39.788Z,533.00
2023-05-19T09:19:39.769Z,533.00
2023-05-19T09:20:39.777Z,533.00
2023-05-19T09:21:39.812Z,530.00
2023-05-19T09:22:39.842Z,529.00
2023-05-19T09:23:39.834Z,531.00
2023-05-19T09:24:39.865Z,532.00
2023-05-19T09:25:39.914Z,532.00
2023-05-19T09:26:39.937Z,532.00
2023-05-19T09:27:39.963Z,530.00
2023-05-19T09:28:39.993Z,530.00
2023-05-19T09:29:40.031Z,528.00
2023-05-19T09:30:40.061Z,526.00
2023-05-19T09:31:40.233Z,529.00
2023-05-19T09:32:40.192Z,531.00
2023-05-19T09:33:40.703Z,534.00
2023-05-19T09:34:40.274Z,537.00
2023-05-19T09:35:40.219Z,536.00
2023-05-19T09:36:40.308Z,536.00
2023-05-19T09:37:40.294Z,532.00
2023-05-19T09:38:40.328Z,531.00
2023-05-19T09:39:40.347Z,529.00
2023-05-19T09:40:40.346Z,528.00
2023-05-19T09:41:40.364Z,528.00
2023-05-19T09:42:40.384Z,531.00
2023-05-19T09:43:40.372Z,532.00
2023-05-19T09:44:40.448Z,533.00
2023-05-19T09:45:40.514Z,534.00
2023-05-19T09:46:40.460Z,534.00
2023-05-19T09:47:40.509Z,534.00
2023-05-19T09:48:40.478Z,536.00
2023-05-19T09:49:40.526Z,534.00
2023-05-19T09:50:41.410Z,536.00
2023-05-19T09:51:40.562Z,538.00
2023-05-19T09:52:40.617Z,537.00
2023-05-19T09:53:40.638Z,537.00
2023-05-19T09:54:40.625Z,537.00
2023-05-19T09:55:40.658Z,537.00
2023-05-19T09:56:40.657Z,535.00
2023-05-19T09:57:40.676Z,536.00
2023-05-19T09:58:40.683Z,537.00
2023-05-19T09:59:40.670Z,535.00
2023-05-19T10:00:40.964Z,537.00
2023-05-19T10:01:40.828Z,538.00
2023-05-19T10:02:40.723Z,537.00
2023-05-19T10:03:40.833Z,538.00
2023-05-19T10:04:40.735Z,540.00
2023-05-19T10:05:40.794Z,538.00
2023-05-19T10:06:40.743Z,543.00
2023-05-19T10:07:40.732Z,544.00
2023-05-19T10:08:40.751Z,542.00
2023-05-19T10:09:40.791Z,541.00
2023-05-19T10:10:40.830Z,542.00
2023-05-19T10:11:40.778Z,541.00
2023-05-19T10:12:40.776Z,539.00
2023-05-19T10:13:40.852Z,539.00
2023-05-19T10:14:40.829Z,537.00
2023-05-19T10:15:50.041Z,534.00
2023-05-19T10:16:41.837Z,535.00
2023-05-19T10:17:40.864Z,537.00
2023-05-19T10:18:40.820Z,538.00
2023-05-19T10:19:40.786Z,538.00
2023-05-19T10:20:40.797Z,539.00
2023-05-19T10:21:40.732Z,537.00
2023-05-19T10:22:40.740Z,533.00
2023-05-19T10:23:40.781Z,535.00
2023-05-19T10:24:40.743Z,533.00
2023-05-19T10:25:40.756Z,530.00
2023-05-19T10:26:40.727Z,532.00
2023-05-19T10:27:40.703Z,532.00
2023-05-19T10:28:40.733Z,535.00
2023-05-19T10:29:40.683Z,537.00
2023-05-19T10:30:40.708Z,538.00
2023-05-19T10:31:40.721Z,537.00
2023-05-19T10:32:40.754Z,539.00
2023-05-19T10:33:40.724Z,537.00
2023-05-19T10:34:40.726Z,535.00
2023-05-19T10:35:40.692Z,534.00
2023-05-19T10:36:40.666Z,535.00
2023-05-19T10:37:40.628Z,540.00
2023-05-19T10:38:40.644Z,541.00
2023-05-19T10:39:40.649Z,543.00
2023-05-19T10:40:40.641Z,540.00
2023-05-19T10:41:40.654Z,541.00
2023-05-19T10:42:40.688Z,541.00
2023-05-19T10:43:40.753Z,541.00
2023-05-19T10:44:40.760Z,543.00
2023-05-19T10:45:40.828Z,542.00
2023-05-19T10:46:40.814Z,542.00
2023-05-19T10:47:40.815Z,543.00
2023-05-19T10:48:40.760Z,544.00
2023-05-19T10:49:40.757Z,543.00
2023-05-19T10:50:40.832Z,544.00
2023-05-19T10:51:40.841Z,545.00
2023-05-19T10:52:40.780Z,542.00
2023-05-19T10:53:40.816Z,539.00
2023-05-19T10:54:40.819Z,539.00
2023-05-19T10:55:40.934Z,539.00
2023-05-19T10:56:40.816Z,542.00
2023-05-19T10:57:40.767Z,542.00
2023-05-19T10:58:40.925Z,543.00
2023-05-19T10:59:40.791Z,540.00
2023-05-19T11:00:40.840Z,538.00
2023-05-19T11:01:40.868Z,537.00
2023-05-19T11:02:40.860Z,537.00
2023-05-19T11:03:43.039Z,536.00
2023-05-19T11:04:40.818Z,535.00
2023-05-19T11:05:40.821Z,534.00
2023-05-19T11:06:40.821Z,536.00
2023-05-19T11:07:40.839Z,537.00
2023-05-19T11:08:40.818Z,538.00
2023-05-19T11:09:41.107Z,537.00
2023-05-19T11:10:40.862Z,540.00
2023-05-19T11:11:40.836Z,540.00
2023-05-19T11:12:40.847Z,541.00
2023-05-19T11:13:40.852Z,540.00
2023-05-19T11:14:40.827Z,540.00
2023-05-19T11:15:40.873Z,541.00
2023-05-19T11:16:40.920Z,540.00
2023-05-19T11:17:40.843Z,540.00
2023-05-19T11:18:40.885Z,539.00
2023-05-19T11:19:40.818Z,539.00
2023-05-19T11:20:41.013Z,540.00
2023-05-19T11:21:40.849Z,541.00
2023-05-19T11:22:40.847Z,541.00
2023-05-19T11:23:40.926Z,540.00
2023-05-19T11:24:40.825Z,541.00
2023-05-19T11:25:40.821Z,539.00
2023-05-19T11:26:40.783Z,539.00
2023-05-19T11:27:40.820Z,540.00
2023-05-19T11:28:40.797Z,539.00
2023-05-19T11:29:40.822Z,535.00
2023-05-19T11:30:40.818Z,534.00
2023-05-19T11:31:40.843Z,533.00
2023-05-19T11:32:40.881Z,535.00
2023-05-19T11:33:40.822Z,534.00
2023-05-19T11:34:40.810Z,533.00
2023-05-19T11:35:40.908Z,530.00
2023-05-19T11:36:40.860Z,532.00
2023-05-19T11:37:40.849Z,531.00
2023-05-19T11:38:40.848Z,529.00
2023-05-19T11:39:40.866Z,530.00
2023-05-19T11:40:40.876Z,530.00
2023-05-19T11:41:40.876Z,533.00
2023-05-19T11:42:41.026Z,535.00
2023-05-19T11:43:40.956Z,536.00
2023-05-19T11:44:40.958Z,536.00
2023-05-19T11:45:40.952Z,535.00
2023-05-19T11:46:41.028Z,534.00
2023-05-19T11:47:57.149Z,534.00
2023-05-19T11:48:42.083Z,532.00
2023-05-19T11:49:40.966Z,532.00
2023-05-19T11:50:40.993Z,535.00
2023-05-19T11:51:41.294Z,538.00
2023-05-19T11:52:40.933Z,538.00
2023-05-19T11:53:41.093Z,540.00
2023-05-19T11:54:40.928Z,542.00
2023-05-19T11:55:40.956Z,539.00
2023-05-19T11:56:40.929Z,539.00
2023-05-19T11:57:43.077Z,539.00
2023-05-19T11:58:40.981Z,539.00
2023-05-19T11:59:40.889Z,537.00
2023-05-19T12:00:40.943Z,536.00
2023-05-19T12:01:40.849Z,536.00
2023-05-19T12:02:40.904Z,539.00
2023-05-19T12:03:40.908Z,540.00
2023-05-19T12:04:40.964Z,540.00
2023-05-19T12:05:43.190Z,538.00
2023-05-19T12:06:40.903Z,536.00
2023-05-19T12:07:40.836Z,534.00
2023-05-19T12:08:40.849Z,535.00
2023-05-19T12:09:40.796Z,534.00
2023-05-19T12:10:40.890Z,535.00
2023-05-19T12:11:40.811Z,535.00
2023-05-19T12:12:40.774Z,536.00
2023-05-19T12:13:40.795Z,536.00
2023-05-19T12:14:40.790Z,539.00
2023-05-19T12:15:40.784Z,539.00
2023-05-19T12:16:40.847Z,540.00
2023-05-19T12:17:40.801Z,541.00
2023-05-19T12:18:40.780Z,540.00
2023-05-19T12:19:40.723Z,541.00
2023-05-19T12:20:40.730Z,540.00
2023-05-19T12:21:40.825Z,539.00
2023-05-19T12:22:40.737Z,535.00
2023-05-19T12:23:40.740Z,536.00
2023-05-19T12:24:40.694Z,537.00
2023-05-19T12:25:40.706Z,537.00
2023-05-19T12:26:40.911Z,537.00
2023-05-19T12:27:40.719Z,534.00
2023-05-19T12:28:40.668Z,530.00